Time;durP1;ratioP1;P1;durP2;ratioP2;P2;SDS_P1;SDS_P2;PMS_P1;PMS_P2;Temp;Humidity;BMP_temperature;BMP_pressure;BME280_temperature;BME280_humidity;BME280_pressure;Samples;Min_cycle;Max_cycle;Signal;HPM_P1;HPM_P2
2022/05/22 00:02:15;;;;;;;10.90;7.20;;;;;;;;;;5073731;28;20404;-58
2022/05/22 00:04:41;;;;;;;10.43;7.27;;;;;;;;;;5074965;28;20954;-58
2022/05/22 00:07:08;;;;;;;15.33;6.90;;;;;;;;;;5075013;28;20430;-58
2022/05/22 00:09:35;;;;;;;10.10;7.07;;;;;;;;;;5075118;28;20403;-58
2022/05/22 00:12:02;;;;;;;10.37;6.70;;;;;;;;;;5074041;28;20387;-58
2022/05/22 00:14:28;;;;;;;12.93;6.30;;;;;;;;;;5074891;28;20412;-58
2022/05/22 00:16:54;;;;;;;9.20;6.43;;;;;;;;;;5074649;28;20388;-58
2022/05/22 00:19:22;;;;;;;8.83;7.47;;;;;;;;;;5074383;28;20494;-58
2022/05/22 00:21:48;;;;;;;9.27;6.80;;;;;;;;;;5073869;28;20398;-58
2022/05/22 00:24:15;;;;;;;7.10;6.40;;;;;;;;;;5074405;28;20429;-57
2022/05/22 00:26:41;;;;;;;11.60;7.27;;;;;;;;;;5074557;28;20399;-58
2022/05/22 00:29:07;;;;;;;8.40;6.70;;;;;;;;;;5074446;28;20440;-58
2022/05/22 00:31:33;;;;;;;6.87;5.70;;;;;;;;;;5074019;28;20454;-58
2022/05/22 00:33:59;;;;;;;9.00;6.90;;;;;;;;;;5073450;28;20464;-58
2022/05/22 00:36:26;;;;;;;7.80;5.93;;;;;;;;;;5074693;28;20407;-58
2022/05/22 00:38:52;;;;;;;9.93;7.10;;;;;;;;;;5074201;28;20464;-58
2022/05/22 00:41:18;;;;;;;16.47;5.93;;;;;;;;;;5073940;28;20928;-58
2022/05/22 00:43:44;;;;;;;7.00;5.43;;;;;;;;;;5074176;28;20422;-58
2022/05/22 00:46:14;;;;;;;14.40;6.30;;;;;;;;;;5074427;28;20409;-58
2022/05/22 00:48:43;;;;;;;13.77;6.80;;;;;;;;;;5074026;28;20458;-58
2022/05/22 00:51:32;;;;;;;6.83;6.20;;;;;;;;;;5073882;28;20415;-58
2022/05/22 00:54:01;;;;;;;9.73;6.47;;;;;;;;;;5073676;28;20975;-58
2022/05/22 00:56:35;;;;;;;7.87;5.43;;;;;;;;;;5074311;28;20396;-58
2022/05/22 00:59:01;;;;;;;7.90;5.37;;;;;;;;;;5073599;28;20420;-58
2022/05/22 01:01:27;;;;;;;5.73;5.23;;;;;;;;;;5073549;28;20402;-58
2022/05/22 01:03:55;;;;;;;7.40;6.07;;;;;;;;;;5072630;28;20479;-58
2022/05/22 01:06:24;;;;;;;7.03;5.70;;;;;;;;;;5073936;28;20393;-57
2022/05/22 01:08:51;;;;;;;9.30;6.00;;;;;;;;;;5073597;28;20465;-58
2022/05/22 01:11:21;;;;;;;7.53;5.80;;;;;;;;;;5073456;28;20463;-58
2022/05/22 01:13:52;;;;;;;9.37;5.70;;;;;;;;;;5072624;28;20508;-58
2022/05/22 01:16:18;;;;;;;9.67;5.70;;;;;;;;;;5073800;28;20412;-58
2022/05/22 01:18:45;;;;;;;6.40;5.80;;;;;;;;;;5073471;28;20863;-58
2022/05/22 01:21:16;;;;;;;5.77;5.07;;;;;;;;;;5072981;28;20422;-58
2022/05/22 01:23:43;;;;;;;7.33;5.27;;;;;;;;;;5073224;28;20852;-57
2022/05/22 01:26:09;;;;;;;5.03;4.60;;;;;;;;;;5073607;28;20886;-57
2022/05/22 01:28:35;;;;;;;6.07;4.77;;;;;;;;;;5073009;28;20541;-57
2022/05/22 01:31:01;;;;;;;8.83;5.40;;;;;;;;;;5073361;28;20484;-57
2022/05/22 01:33:27;;;;;;;6.50;4.60;;;;;;;;;;5072236;28;20410;-58
2022/05/22 01:35:53;;;;;;;9.70;5.17;;;;;;;;;;5073604;28;20507;-58
2022/05/22 01:38:20;;;;;;;7.40;5.00;;;;;;;;;;5073330;28;20762;-58
2022/05/22 01:40:46;;;;;;;5.50;3.97;;;;;;;;;;5073285;28;20487;-59
2022/05/22 01:43:12;;;;;;;10.07;4.93;;;;;;;;;;5073072;28;20426;-58
2022/05/22 01:45:40;;;;;;;8.87;4.80;;;;;;;;;;5073142;28;20500;-58
2022/05/22 01:48:06;;;;;;;9.77;5.70;;;;;;;;;;5073633;28;20467;-58
2022/05/22 01:50:32;;;;;;;10.80;6.00;;;;;;;;;;5073466;28;20429;-58
2022/05/22 01:52:59;;;;;;;6.47;4.77;;;;;;;;;;5072453;28;20427;-58
2022/05/22 01:55:25;;;;;;;7.60;5.30;;;;;;;;;;5073195;28;20929;-58
2022/05/22 01:57:50;;;;;;;10.03;4.80;;;;;;;;;;5073066;28;20412;-57
2022/05/22 02:00:18;;;;;;;12.70;5.20;;;;;;;;;;5072936;28;20411;-58
2022/05/22 02:02:44;;;;;;;9.60;5.80;;;;;;;;;;5072662;28;20412;-58
2022/05/22 02:05:10;;;;;;;12.90;6.00;;;;;;;;;;5073289;28;20923;-57
2022/05/22 02:10:22;;;;;;;8.47;5.57;;;;;;;;;;5073103;28;20912;-57
2022/05/22 02:12:48;;;;;;;10.30;6.50;;;;;;;;;;5072454;28;20405;-58
2022/05/22 02:15:14;;;;;;;9.23;6.07;;;;;;;;;;5072811;28;20511;-58
2022/05/22 02:17:40;;;;;;;18.83;6.87;;;;;;;;;;5072739;28;20405;-58
2022/05/22 02:20:06;;;;;;;6.83;5.87;;;;;;;;;;5072742;28;20400;-57
2022/05/22 02:22:32;;;;;;;11.17;7.10;;;;;;;;;;5072238;28;20446;-58
2022/05/22 02:24:58;;;;;;;9.53;6.40;;;;;;;;;;5072767;28;20448;-58
2022/05/22 02:27:24;;;;;;;6.77;6.07;;;;;;;;;;5072689;28;20404;-58
2022/05/22 02:29:50;;;;;;;9.70;7.17;;;;;;;;;;5072948;28;20410;-57
2022/05/22 02:32:16;;;;;;;9.07;6.53;;;;;;;;;;5072032;28;20440;-57
2022/05/22 02:34:42;;;;;;;10.70;6.93;;;;;;;;;;5071699;28;20557;-57
2022/05/22 02:37:08;;;;;;;8.20;7.07;;;;;;;;;;5072443;28;20407;-58
2022/05/22 02:39:34;;;;;;;8.90;7.07;;;;;;;;;;5072592;28;20466;-57
2022/05/22 02:42:06;;;;;;;8.87;7.30;;;;;;;;;;5071676;28;20402;-57
2022/05/22 02:44:33;;;;;;;9.17;7.50;;;;;;;;;;5072479;28;20421;-57
2022/05/22 02:46:59;;;;;;;10.80;7.90;;;;;;;;;;5072687;28;20406;-58
2022/05/22 02:49:25;;;;;;;11.97;8.47;;;;;;;;;;5072532;28;20456;-58
2022/05/22 02:51:51;;;;;;;10.60;6.57;;;;;;;;;;5071471;28;20408;-58
2022/05/22 02:54:17;;;;;;;8.90;8.00;;;;;;;;;;5072640;28;20705;-58
2022/05/22 02:56:43;;;;;;;10.90;8.13;;;;;;;;;;5072585;28;20401;-58
2022/05/22 02:59:10;;;;;;;14.43;8.30;;;;;;;;;;5072088;28;20411;-57
2022/05/22 03:01:36;;;;;;;13.93;7.50;;;;;;;;;;5071787;28;20427;-58
2022/05/22 03:04:03;;;;;;;11.73;8.07;;;;;;;;;;5072263;28;20424;-57
2022/05/22 03:06:38;;;;;;;10.37;8.07;;;;;;;;;;5072018;28;20865;-58
2022/05/22 03:09:05;;;;;;;9.13;7.70;;;;;;;;;;5072114;28;20812;-58
2022/05/22 03:11:31;;;;;;;10.60;8.20;;;;;;;;;;5071311;28;20411;-58
2022/05/22 03:13:57;;;;;;;12.57;8.70;;;;;;;;;;5072156;28;20427;-58
2022/05/22 03:16:23;;;;;;;12.27;7.50;;;;;;;;;;5071826;28;20906;-58
2022/05/22 03:18:49;;;;;;;9.67;7.40;;;;;;;;;;5071631;28;20487;-58
2022/05/22 03:21:15;;;;;;;12.53;7.53;;;;;;;;;;5071041;28;20819;-58
2022/05/22 03:23:41;;;;;;;8.60;7.30;;;;;;;;;;5071559;28;20433;-58
2022/05/22 03:26:09;;;;;;;16.13;9.17;;;;;;;;;;5071737;28;20419;-58
2022/05/22 03:28:35;;;;;;;14.70;10.03;;;;;;;;;;5071599;28;20502;-58
2022/05/22 03:31:01;;;;;;;14.43;8.50;;;;;;;;;;5071272;28;20401;-58
2022/05/22 03:33:27;;;;;;;10.53;8.73;;;;;;;;;;5071674;28;20722;-58
2022/05/22 03:35:53;;;;;;;9.93;8.10;;;;;;;;;;5072991;28;20420;-58
2022/05/22 03:38:19;;;;;;;10.00;8.33;;;;;;;;;;5075578;28;20405;-58
2022/05/22 03:40:46;;;;;;;13.73;9.67;;;;;;;;;;5075205;28;20393;-58
2022/05/22 03:43:12;;;;;;;12.23;8.80;;;;;;;;;;5075400;28;20912;-58
2022/05/22 03:45:38;;;;;;;13.60;9.70;;;;;;;;;;5075223;28;20935;-58
2022/05/22 03:48:04;;;;;;;12.97;9.50;;;;;;;;;;5075243;28;20440;-58
2022/05/22 03:50:30;;;;;;;14.50;9.30;;;;;;;;;;5075254;28;20408;-58
2022/05/22 03:52:56;;;;;;;13.13;8.37;;;;;;;;;;5074448;28;20428;-58
2022/05/22 03:55:23;;;;;;;12.50;9.17;;;;;;;;;;5075064;28;20420;-58
2022/05/22 03:57:49;;;;;;;9.87;8.23;;;;;;;;;;5075176;28;20417;-58
2022/05/22 04:00:17;;;;;;;9.97;8.57;;;;;;;;;;5074947;28;20412;-58
2022/05/22 04:02:43;;;;;;;12.90;9.50;;;;;;;;;;5074330;28;20404;-58
2022/05/22 04:05:09;;;;;;;10.10;8.07;;;;;;;;;;5074789;28;20432;-58
2022/05/22 04:07:43;;;;;;;12.70;8.40;;;;;;;;;;5074691;28;20405;-57
2022/05/22 04:10:09;;;;;;;12.53;9.30;;;;;;;;;;5074769;28;20393;-58
2022/05/22 04:12:36;;;;;;;11.30;9.30;;;;;;;;;;5074299;28;20401;-58
2022/05/22 04:15:02;;;;;;;13.47;8.70;;;;;;;;;;5074765;28;20443;-57
2022/05/22 04:17:29;;;;;;;11.27;8.80;;;;;;;;;;5075142;28;20401;-57
2022/05/22 04:19:55;;;;;;;13.40;9.90;;;;;;;;;;5074807;28;20818;-58
2022/05/22 04:22:21;;;;;;;14.80;9.87;;;;;;;;;;5074112;28;20435;-57
2022/05/22 04:27:31;;;;;;;11.57;8.20;;;;;;;;;;5074311;28;20954;-57
2022/05/22 04:29:57;;;;;;;14.33;9.50;;;;;;;;;;5074398;28;20401;-58
2022/05/22 04:32:23;;;;;;;12.20;9.47;;;;;;;;;;5073845;28;20466;-58
2022/05/22 04:34:49;;;;;;;14.20;9.90;;;;;;;;;;5074529;28;20442;-57
2022/05/22 04:37:15;;;;;;;15.97;9.57;;;;;;;;;;5074387;28;20484;-57
2022/05/22 04:39:41;;;;;;;11.40;8.73;;;;;;;;;;5074434;28;20400;-58
2022/05/22 04:42:07;;;;;;;11.40;8.37;;;;;;;;;;5073551;28;20404;-58
2022/05/22 04:44:33;;;;;;;11.07;8.83;;;;;;;;;;5074394;28;20444;-58
2022/05/22 04:47:00;;;;;;;9.37;8.30;;;;;;;;;;5074044;28;20405;-58
2022/05/22 04:49:26;;;;;;;11.17;8.27;;;;;;;;;;5074285;28;20484;-58
2022/05/22 04:51:52;;;;;;;9.87;8.47;;;;;;;;;;5073814;28;20446;-58
2022/05/22 04:54:18;;;;;;;18.87;9.80;;;;;;;;;;5074120;28;20475;-58
2022/05/22 04:56:44;;;;;;;12.80;8.97;;;;;;;;;;5074123;28;20401;-58
2022/05/22 04:59:10;;;;;;;11.30;9.10;;;;;;;;;;5074082;28;20412;-58
2022/05/22 05:01:36;;;;;;;13.70;10.17;;;;;;;;;;5073508;28;20399;-58
2022/05/22 05:04:02;;;;;;;11.43;9.60;;;;;;;;;;5074028;28;20423;-58
2022/05/22 05:06:29;;;;;;;16.90;9.77;;;;;;;;;;5073906;28;20485;-58
2022/05/22 05:08:56;;;;;;;15.37;10.23;;;;;;;;;;5073884;28;20447;-58
2022/05/22 05:11:22;;;;;;;14.77;10.37;;;;;;;;;;5073290;28;20464;-58
2022/05/22 05:13:48;;;;;;;17.63;9.67;;;;;;;;;;5073900;28;20401;-58
2022/05/22 05:16:14;;;;;;;16.37;9.40;;;;;;;;;;5073860;28;20890;-58
2022/05/22 05:18:40;;;;;;;22.03;9.20;;;;;;;;;;5073582;28;20410;-58
2022/05/22 05:21:08;;;;;;;9.37;8.47;;;;;;;;;;5073351;28;20416;-57
2022/05/22 05:23:35;;;;;;;16.93;9.80;;;;;;;;;;5073950;28;20865;-58
2022/05/22 05:26:01;;;;;;;12.40;8.70;;;;;;;;;;5073972;28;20423;-58
2022/05/22 05:28:27;;;;;;;13.23;10.13;;;;;;;;;;5073840;28;20455;-58
2022/05/22 05:30:53;;;;;;;16.50;9.97;;;;;;;;;;5073423;28;20374;-58
2022/05/22 05:33:19;;;;;;;14.53;10.03;;;;;;;;;;5073862;28;20940;-58
2022/05/22 05:35:45;;;;;;;14.57;10.07;;;;;;;;;;5073737;28;20923;-58
2022/05/22 05:38:11;;;;;;;13.80;10.23;;;;;;;;;;5073702;28;20398;-58
2022/05/22 05:40:37;;;;;;;10.90;9.20;;;;;;;;;;5073306;28;20406;-58
2022/05/22 05:43:03;;;;;;;10.67;9.57;;;;;;;;;;5072948;28;20407;-58
2022/05/22 05:45:30;;;;;;;13.80;9.30;;;;;;;;;;5073973;28;20385;-58
2022/05/22 05:47:57;;;;;;;11.20;8.70;;;;;;;;;;5072654;28;20421;-57
2022/05/22 05:50:25;;;;;;;11.83;8.87;;;;;;;;;;5072724;28;20951;-57
2022/05/22 05:52:52;;;;;;;15.97;9.13;;;;;;;;;;5071833;28;20796;-57
2022/05/22 05:55:19;;;;;;;17.40;13.17;;;;;;;;;;5072507;28;20458;-57
2022/05/22 05:57:45;;;;;;;13.07;9.67;;;;;;;;;;5072412;28;20445;-58
2022/05/22 06:00:12;;;;;;;13.87;8.43;;;;;;;;;;5072043;28;20405;-58
2022/05/22 06:02:38;;;;;;;13.80;8.97;;;;;;;;;;5071856;28;20398;-58
2022/05/22 06:05:05;;;;;;;13.70;8.40;;;;;;;;;;5072324;28;20788;-58
2022/05/22 06:07:31;;;;;;;9.43;6.90;;;;;;;;;;5072210;28;20408;-57
2022/05/22 06:09:58;;;;;;;15.93;8.67;;;;;;;;;;5072201;28;20474;-58
2022/05/22 06:12:24;;;;;;;12.20;8.27;;;;;;;;;;5071726;28;20460;-57
2022/05/22 06:14:50;;;;;;;12.00;8.20;;;;;;;;;;5072305;28;20427;-58
2022/05/22 06:17:17;;;;;;;8.93;8.03;;;;;;;;;;5072287;28;20379;-58
2022/05/22 06:19:55;;;;;;;14.93;8.77;;;;;;;;;;5072158;28;20419;-58
2022/05/22 06:22:21;;;;;;;10.43;9.03;;;;;;;;;;5071547;28;20374;-57
2022/05/22 06:24:47;;;;;;;10.10;7.13;;;;;;;;;;5072046;28;21073;-58
2022/05/22 06:27:14;;;;;;;9.03;7.53;;;;;;;;;;5072170;28;20385;-57
2022/05/22 06:29:40;;;;;;;16.53;8.60;;;;;;;;;;5071980;28;20430;-58
2022/05/22 06:32:07;;;;;;;8.60;7.80;;;;;;;;;;5071430;28;20487;-58
2022/05/22 06:34:34;;;;;;;13.13;7.87;;;;;;;;;;5071883;28;20416;-58
2022/05/22 06:37:01;;;;;;;9.20;7.60;;;;;;;;;;5072312;28;20379;-58
2022/05/22 06:42:13;;;;;;;12.23;7.80;;;;;;;;;;5071372;28;20881;-58
2022/05/22 06:44:39;;;;;;;12.80;7.83;;;;;;;;;;5071794;28;20789;-58
2022/05/22 06:47:05;;;;;;;14.03;9.40;;;;;;;;;;5071837;28;20409;-58
2022/05/22 06:49:31;;;;;;;16.23;7.93;;;;;;;;;;5071751;28;20472;-58
2022/05/22 06:51:58;;;;;;;12.30;8.83;;;;;;;;;;5071215;28;20488;-58
2022/05/22 06:54:24;;;;;;;20.83;8.00;;;;;;;;;;5071834;28;20492;-58
2022/05/22 06:56:50;;;;;;;19.43;7.63;;;;;;;;;;5071865;28;20882;-58
2022/05/22 06:59:16;;;;;;;10.27;7.93;;;;;;;;;;5071724;28;20764;-58
2022/05/22 07:01:42;;;;;;;11.20;7.67;;;;;;;;;;5071160;28;21061;-58
2022/05/22 07:04:08;;;;;;;15.57;8.30;;;;;;;;;;5071706;28;20817;-58
2022/05/22 07:06:34;;;;;;;15.53;8.87;;;;;;;;;;5065625;28;20419;-58
2022/05/22 07:09:00;;;;;;;9.97;7.60;;;;;;;;;;5055153;28;20461;-57
2022/05/22 07:11:38;;;;;;;9.73;6.90;;;;;;;;;;5054736;28;20368;-58
2022/05/22 07:14:04;;;;;;;13.60;8.73;;;;;;;;;;5055622;28;20416;-58
2022/05/22 07:16:31;;;;;;;10.70;7.97;;;;;;;;;;5055933;28;20380;-57
2022/05/22 07:18:57;;;;;;;12.03;8.77;;;;;;;;;;5055566;28;20817;-57
2022/05/22 07:21:24;;;;;;;17.87;9.43;;;;;;;;;;5055122;28;20392;-58
2022/05/22 07:23:50;;;;;;;19.50;9.83;;;;;;;;;;5074873;28;20387;-58
2022/05/22 07:26:19;;;;;;;16.23;8.60;;;;;;;;;;5075273;28;20367;-58
2022/05/22 07:28:45;;;;;;;14.20;8.93;;;;;;;;;;5075301;28;20443;-58
2022/05/22 07:31:14;;;;;;;17.00;8.93;;;;;;;;;;5073471;28;20486;-58
2022/05/22 07:33:40;;;;;;;12.13;7.60;;;;;;;;;;5074576;28;20410;-58
2022/05/22 07:36:06;;;;;;;11.17;7.80;;;;;;;;;;5075003;28;20700;-58
2022/05/22 07:38:32;;;;;;;9.27;7.07;;;;;;;;;;5075489;28;20433;-58
2022/05/22 07:40:58;;;;;;;9.20;7.00;;;;;;;;;;5073780;28;20467;-57
2022/05/22 07:43:24;;;;;;;7.73;7.00;;;;;;;;;;5075071;28;20400;-58
2022/05/22 07:45:50;;;;;;;7.50;6.37;;;;;;;;;;5075038;28;20414;-58
2022/05/22 07:48:16;;;;;;;9.33;7.37;;;;;;;;;;5074399;28;20535;-58
2022/05/22 07:50:42;;;;;;;8.60;6.07;;;;;;;;;;5074951;28;20365;-58
2022/05/22 07:53:09;;;;;;;10.70;6.50;;;;;;;;;;5074115;28;20429;-58
2022/05/22 07:55:35;;;;;;;9.97;5.80;;;;;;;;;;5074893;28;20416;-58
2022/05/22 07:58:01;;;;;;;10.20;5.83;;;;;;;;;;5074211;28;20868;-58
2022/05/22 08:00:27;;;;;;;18.97;6.23;;;;;;;;;;5075065;28;20773;-58
2022/05/22 08:02:53;;;;;;;7.37;5.73;;;;;;;;;;5074021;28;20908;-58
2022/05/22 08:05:20;;;;;;;8.53;5.17;;;;;;;;;;5074600;28;20512;-58
2022/05/22 08:07:46;;;;;;;10.57;4.53;;;;;;;;;;5074405;28;20420;-57
2022/05/22 08:10:13;;;;;;;10.50;4.43;;;;;;;;;;5074689;28;20980;-58
2022/05/22 08:12:40;;;;;;;11.97;5.67;;;;;;;;;;5073489;28;20790;-58
2022/05/22 08:15:07;;;;;;;7.20;4.83;;;;;;;;;;5074530;28;20510;-58
2022/05/22 08:17:36;;;;;;;12.40;5.43;;;;;;;;;;5074527;28;20448;-58
2022/05/22 08:20:07;;;;;;;5.83;4.03;;;;;;;;;;5074747;28;20415;-58
2022/05/22 08:22:33;;;;;;;8.53;4.50;;;;;;;;;;5072843;28;20480;-58
2022/05/22 08:25:00;;;;;;;8.47;5.23;;;;;;;;;;5074375;28;20874;-58
2022/05/22 08:27:27;;;;;;;6.20;4.53;;;;;;;;;;5074155;28;20462;-58
2022/05/22 08:29:53;;;;;;;11.07;4.10;;;;;;;;;;5074195;28;20451;-58
2022/05/22 08:32:19;;;;;;;7.20;3.30;;;;;;;;;;5073160;28;20444;-58
2022/05/22 08:34:45;;;;;;;5.77;4.10;;;;;;;;;;5072950;28;20449;-58
2022/05/22 08:37:11;;;;;;;10.00;3.67;;;;;;;;;;5073966;28;20781;-58
2022/05/22 08:39:37;;;;;;;15.73;4.20;;;;;;;;;;5073493;28;20421;-58
2022/05/22 08:42:07;;;;;;;5.13;3.00;;;;;;;;;;5073042;28;20450;-58
2022/05/22 08:44:33;;;;;;;5.90;3.67;;;;;;;;;;5073866;28;20430;-58
2022/05/22 08:47:17;;;;;;;9.73;3.10;;;;;;;;;;5073753;28;20422;-58
2022/05/22 08:49:46;;;;;;;5.23;3.47;;;;;;;;;;5072646;28;20976;-58
2022/05/22 08:52:23;;;;;;;4.90;3.20;;;;;;;;;;5072985;28;20517;-59
2022/05/22 08:54:50;;;;;;;4.10;3.10;;;;;;;;;;5069912;28;20446;-58
2022/05/22 09:00:11;;;;;;;16.77;4.33;;;;;;;;;;5073426;28;20502;-58
2022/05/22 09:02:41;;;;;;;6.60;3.47;;;;;;;;;;5072553;28;20423;-58
2022/05/22 09:05:12;;;;;;;8.97;4.20;;;;;;;;;;5073241;28;20439;-58
2022/05/22 09:07:41;;;;;;;9.53;4.20;;;;;;;;;;5073400;28;20392;-58
2022/05/22 09:10:12;;;;;;;7.73;4.27;;;;;;;;;;5072959;28;20503;-58
2022/05/22 09:13:07;;;;;;;12.00;5.60;;;;;;;;;;5072982;28;20404;-58
2022/05/22 09:15:36;;;;;;;9.23;4.63;;;;;;;;;;5072330;28;20887;-59
2022/05/22 09:18:13;;;;;;;7.50;4.67;;;;;;;;;;5073076;28;20915;-58
2022/05/22 09:20:58;;;;;;;10.47;5.10;;;;;;;;;;5071315;28;20925;-58
2022/05/22 09:23:43;;;;;;;8.40;5.10;;;;;;;;;;5071830;28;20416;-58
2022/05/22 09:26:10;;;;;;;7.20;5.20;;;;;;;;;;5072265;28;20407;-58
2022/05/22 09:28:55;;;;;;;10.83;5.90;;;;;;;;;;5072150;28;20456;-58
2022/05/22 09:31:34;;;;;;;10.13;6.17;;;;;;;;;;5072397;28;20969;-58
2022/05/22 09:34:08;;;;;;;8.00;4.73;;;;;;;;;;5071110;28;20443;-58
2022/05/22 09:36:50;;;;;;;8.67;5.53;;;;;;;;;;5072796;28;20393;-59
2022/05/22 09:39:25;;;;;;;8.77;4.90;;;;;;;;;;5072010;28;20449;-58
2022/05/22 09:41:51;;;;;;;6.60;3.73;;;;;;;;;;5072359;28;20483;-59
2022/05/22 09:44:33;;;;;;;5.30;3.83;;;;;;;;;;5072448;28;20471;-58
2022/05/22 09:46:59;;;;;;;5.93;4.10;;;;;;;;;;5072098;28;20182;-58
2022/05/22 09:49:39;;;;;;;15.90;5.07;;;;;;;;;;5072864;28;20792;-58
2022/05/22 09:52:24;;;;;;;9.80;5.57;;;;;;;;;;5071115;28;20447;-58
2022/05/22 09:55:01;;;;;;;8.60;4.53;;;;;;;;;;5089370;28;20526;-59
2022/05/22 09:57:46;;;;;;;7.93;4.63;;;;;;;;;;5088715;28;20839;-59
2022/05/22 10:00:14;;;;;;;12.70;5.47;;;;;;;;;;5089254;28;20394;-59
2022/05/22 10:02:50;;;;;;;7.67;4.27;;;;;;;;;;5071437;28;20416;-59
2022/05/22 10:05:19;;;;;;;12.83;5.00;;;;;;;;;;5068921;28;20775;-59
2022/05/22 10:07:51;;;;;;;5.93;4.10;;;;;;;;;;5086068;28;20414;-59
2022/05/22 10:10:27;;;;;;;13.47;4.43;;;;;;;;;;5087459;28;20842;-59
2022/05/22 10:13:00;;;;;;;8.70;4.50;;;;;;;;;;5079948;28;20534;-59
2022/05/22 10:15:29;;;;;;;7.30;4.53;;;;;;;;;;5068779;28;20943;-59
2022/05/22 10:18:00;;;;;;;5.63;4.80;;;;;;;;;;5076270;28;20411;-59
2022/05/22 10:20:47;;;;;;;10.07;5.73;;;;;;;;;;5089000;28;20477;-59
2022/05/22 10:23:25;;;;;;;7.57;4.77;;;;;;;;;;5050786;28;20463;-58
2022/05/22 10:26:03;;;;;;;6.37;3.70;;;;;;;;;;5088738;28;20423;-59
2022/05/22 10:28:31;;;;;;;6.17;4.77;;;;;;;;;;5085735;28;20900;-60
2022/05/22 10:31:16;;;;;;;9.60;4.33;;;;;;;;;;5083370;28;20402;-59
2022/05/22 10:33:50;;;;;;;4.10;3.17;;;;;;;;;;5086450;28;20415;-60
2022/05/22 10:36:29;;;;;;;6.20;4.33;;;;;;;;;;5089070;28;20402;-59
2022/05/22 10:38:57;;;;;;;6.77;3.67;;;;;;;;;;5086920;28;20414;-60
2022/05/22 10:44:12;;;;;;;7.77;3.93;;;;;;;;;;5086695;28;20833;-60
2022/05/22 10:46:49;;;;;;;18.80;3.50;;;;;;;;;;5088852;28;20407;-60
2022/05/22 10:49:15;;;;;;;5.20;4.17;;;;;;;;;;5086572;28;20500;-59
2022/05/22 10:51:41;;;;;;;4.67;4.27;;;;;;;;;;5086062;28;20418;-60
2022/05/22 10:54:07;;;;;;;8.80;3.20;;;;;;;;;;5076588;28;20546;-60
2022/05/22 10:56:34;;;;;;;7.10;4.43;;;;;;;;;;5087612;28;20453;-59
2022/05/22 10:59:02;;;;;;;8.37;3.83;;;;;;;;;;5079197;28;20419;-60
2022/05/22 11:01:32;;;;;;;5.67;4.00;;;;;;;;;;5069648;28;20404;-60
2022/05/22 11:04:09;;;;;;;6.63;4.60;;;;;;;;;;5072280;28;20455;-59
2022/05/22 11:06:36;;;;;;;5.93;4.30;;;;;;;;;;5053983;28;20443;-60
2022/05/22 11:09:03;;;;;;;4.07;3.67;;;;;;;;;;5060082;28;20912;-60
2022/05/22 11:11:31;;;;;;;4.03;3.20;;;;;;;;;;5059474;28;20413;-60
2022/05/22 11:14:08;;;;;;;6.67;4.37;;;;;;;;;;5072271;28;20444;-60
2022/05/22 11:16:34;;;;;;;6.80;3.87;;;;;;;;;;5074491;28;20454;-60
2022/05/22 11:19:08;;;;;;;5.60;3.30;;;;;;;;;;5066454;28;20421;-59
2022/05/22 11:22:07;;;;;;;7.10;4.93;;;;;;;;;;5058837;28;20428;-60
2022/05/22 11:24:48;;;;;;;9.83;3.57;;;;;;;;;;5059649;28;20479;-60
2022/05/22 11:27:14;;;;;;;5.90;3.00;;;;;;;;;;5061509;28;20419;-60
2022/05/22 11:29:45;;;;;;;8.00;4.93;;;;;;;;;;5065188;28;20417;-60
2022/05/22 11:32:17;;;;;;;5.07;4.57;;;;;;;;;;5068335;28;20475;-60
2022/05/22 11:35:02;;;;;;;5.30;4.00;;;;;;;;;;5059151;28;20497;-60
2022/05/22 11:37:34;;;;;;;6.40;5.40;;;;;;;;;;5073891;28;20766;-60
2022/05/22 11:40:19;;;;;;;7.00;4.30;;;;;;;;;;5066986;28;20970;-60
2022/05/22 11:42:45;;;;;;;5.97;4.80;;;;;;;;;;5053290;28;20849;-60
2022/05/22 11:45:17;;;;;;;7.00;3.33;;;;;;;;;;5061156;28;20907;-60
2022/05/22 11:47:43;;;;;;;10.43;3.80;;;;;;;;;;5073729;28;20408;-60
2022/05/22 11:50:12;;;;;;;7.43;4.53;;;;;;;;;;5066451;28;20508;-60
2022/05/22 11:52:54;;;;;;;11.40;4.93;;;;;;;;;;5053334;28;20455;-60
2022/05/22 11:55:20;;;;;;;8.73;4.57;;;;;;;;;;5061918;28;20534;-60
2022/05/22 11:58:04;;;;;;;8.20;5.30;;;;;;;;;;5073531;28;20484;-60
2022/05/22 12:00:48;;;;;;;10.03;4.50;;;;;;;;;;5063716;28;20450;-60
2022/05/22 12:03:30;;;;;;;6.27;3.87;;;;;;;;;;5053459;28;20461;-59
2022/05/22 12:06:05;;;;;;;4.97;2.90;;;;;;;;;;5060306;28;20439;-60
2022/05/22 12:08:41;;;;;;;7.23;5.00;;;;;;;;;;5073404;28;20821;-60
2022/05/22 12:11:17;;;;;;;4.13;3.00;;;;;;;;;;5055494;28;20912;-60
2022/05/22 12:13:43;;;;;;;4.57;4.10;;;;;;;;;;5053226;28;20777;-60
2022/05/22 12:16:41;;;;;;;6.50;3.20;;;;;;;;;;5053574;28;20421;-60
2022/05/22 12:19:43;;;;;;;7.57;4.50;;;;;;;;;;5020104;28;20332;-60
2022/05/22 12:22:16;;;;;;;8.33;4.23;;;;;;;;;;4988940;28;20995;-60
2022/05/22 12:24:49;;;;;;;8.60;4.43;;;;;;;;;;5048091;28;20464;-60
2022/05/22 12:27:24;;;;;;;7.40;3.80;;;;;;;;;;5072119;28;20396;-60
2022/05/22 12:30:10;;;;;;;9.60;4.37;;;;;;;;;;5065241;28;20420;-60
2022/05/22 12:32:57;;;;;;;6.57;4.00;;;;;;;;;;5055305;28;20413;-60
2022/05/22 12:35:24;;;;;;;5.20;3.80;;;;;;;;;;5059585;28;20816;-60
2022/05/22 12:37:53;;;;;;;6.80;3.93;;;;;;;;;;5069490;28;20446;-60
2022/05/22 12:40:32;;;;;;;4.60;4.20;;;;;;;;;;5072166;28;20412;-60
2022/05/22 12:43:00;;;;;;;5.77;4.07;;;;;;;;;;5062637;28;20475;-60
2022/05/22 12:45:28;;;;;;;4.87;3.50;;;;;;;;;;5059763;28;20524;-59
2022/05/22 12:47:55;;;;;;;8.43;3.73;;;;;;;;;;5060888;28;20415;-59
2022/05/22 12:50:26;;;;;;;6.90;4.30;;;;;;;;;;5058292;28;20405;-60
2022/05/22 12:52:52;;;;;;;9.63;4.27;;;;;;;;;;5060491;28;20444;-59
2022/05/22 12:55:28;;;;;;;10.93;4.50;;;;;;;;;;5059418;28;20977;-60
2022/05/22 12:57:55;;;;;;;5.77;4.13;;;;;;;;;;5052998;28;20448;-60
2022/05/22 13:00:42;;;;;;;6.73;3.90;;;;;;;;;;5065625;28;20406;-59
2022/05/22 13:03:11;;;;;;;3.30;3.00;;;;;;;;;;5052735;28;20467;-59
2022/05/22 13:05:37;;;;;;;5.53;3.53;;;;;;;;;;5052890;28;20433;-59
2022/05/22 13:08:13;;;;;;;5.27;3.40;;;;;;;;;;5054628;28;20425;-59
2022/05/22 13:10:53;;;;;;;5.27;3.70;;;;;;;;;;5055088;28;20405;-59
2022/05/22 13:13:32;;;;;;;5.93;3.57;;;;;;;;;;5058364;28;20512;-60
2022/05/22 13:16:07;;;;;;;3.97;3.20;;;;;;;;;;5055866;28;20982;-60
2022/05/22 13:18:33;;;;;;;6.60;3.37;;;;;;;;;;5066520;28;20417;-60
2022/05/22 13:21:00;;;;;;;6.00;3.43;;;;;;;;;;5061411;28;21012;-60
2022/05/22 13:23:28;;;;;;;4.30;2.83;;;;;;;;;;5052667;28;20799;-60
2022/05/22 13:26:27;;;;;;;11.13;3.70;;;;;;;;;;5055146;28;20437;-59
2022/05/22 13:28:57;;;;;;;7.37;3.53;;;;;;;;;;5036219;28;20432;-59
2022/05/22 13:31:28;;;;;;;5.70;3.27;;;;;;;;;;5063219;28;20406;-60
2022/05/22 13:34:04;;;;;;;6.60;3.10;;;;;;;;;;5067436;28;20433;-59
2022/05/22 13:36:31;;;;;;;6.67;3.47;;;;;;;;;;5065594;28;20792;-60
2022/05/22 13:38:59;;;;;;;6.07;3.27;;;;;;;;;;5054620;28;20428;-60
2022/05/22 13:41:48;;;;;;;6.43;3.37;;;;;;;;;;5068962;28;20530;-60
2022/05/22 13:44:35;;;;;;;5.23;3.30;;;;;;;;;;5056533;28;20546;-59
2022/05/22 13:47:04;;;;;;;6.20;3.70;;;;;;;;;;5066829;28;20530;-60
2022/05/22 13:49:37;;;;;;;4.40;3.27;;;;;;;;;;5056657;28;20534;-60
2022/05/22 13:54:52;;;;;;;4.67;3.20;;;;;;;;;;5064183;28;20498;-60
2022/05/22 13:57:20;;;;;;;7.40;3.67;;;;;;;;;;5070025;28;20448;-60
2022/05/22 13:59:49;;;;;;;9.73;4.93;;;;;;;;;;5071344;28;20951;-60
2022/05/22 14:02:17;;;;;;;7.10;3.57;;;;;;;;;;5062255;28;20421;-60
2022/05/22 14:04:44;;;;;;;5.27;3.30;;;;;;;;;;5051186;28;20497;-60
2022/05/22 14:07:18;;;;;;;5.07;3.37;;;;;;;;;;5054350;28;20774;-59
2022/05/22 14:09:44;;;;;;;7.80;3.60;;;;;;;;;;5053692;28;20445;-59
2022/05/22 14:12:13;;;;;;;4.80;3.33;;;;;;;;;;5053443;28;20429;-60
2022/05/22 14:14:40;;;;;;;6.20;2.80;;;;;;;;;;5061221;28;20442;-60
2022/05/22 14:17:07;;;;;;;6.33;3.47;;;;;;;;;;5063110;28;20830;-60
2022/05/22 14:19:35;;;;;;;8.37;4.20;;;;;;;;;;5053320;28;20485;-60
2022/05/22 14:22:18;;;;;;;6.63;3.87;;;;;;;;;;5064515;28;20504;-60
2022/05/22 14:24:54;;;;;;;6.13;3.83;;;;;;;;;;5062130;28;20463;-60
2022/05/22 14:27:28;;;;;;;3.30;2.93;;;;;;;;;;5051265;28;20393;-60
2022/05/22 14:30:05;;;;;;;8.07;3.60;;;;;;;;;;5067636;28;20448;-60
2022/05/22 14:32:31;;;;;;;4.43;2.87;;;;;;;;;;5070548;28;20396;-60
2022/05/22 14:34:57;;;;;;;5.00;3.17;;;;;;;;;;5053984;28;20448;-60
2022/05/22 14:37:23;;;;;;;6.00;3.60;;;;;;;;;;5069618;28;20443;-60
2022/05/22 14:39:51;;;;;;;11.87;7.07;;;;;;;;;;5063380;28;20427;-60
2022/05/22 14:42:19;;;;;;;4.60;3.30;;;;;;;;;;5066150;28;20408;-60
2022/05/22 14:44:45;;;;;;;6.53;4.13;;;;;;;;;;5058976;28;20471;-60
2022/05/22 14:47:13;;;;;;;4.90;3.30;;;;;;;;;;5074494;28;20408;-60
2022/05/22 14:49:46;;;;;;;8.80;3.33;;;;;;;;;;5057160;28;20935;-60
2022/05/22 14:52:31;;;;;;;5.10;3.10;;;;;;;;;;5054168;28;20432;-60
2022/05/22 14:54:59;;;;;;;5.53;3.00;;;;;;;;;;5072236;28;20444;-60
2022/05/22 14:57:36;;;;;;;9.03;3.40;;;;;;;;;;5055024;28;20897;-60
2022/05/22 15:00:07;;;;;;;6.67;3.60;;;;;;;;;;5054582;28;20629;-60
2022/05/22 15:02:42;;;;;;;4.50;3.13;;;;;;;;;;5064993;28;20416;-60
2022/05/22 15:05:09;;;;;;;4.17;2.90;;;;;;;;;;5071716;28;20453;-60
2022/05/22 15:07:36;;;;;;;3.67;3.30;;;;;;;;;;5054585;28;20398;-60
2022/05/22 15:10:05;;;;;;;4.07;3.03;;;;;;;;;;5072899;28;20412;-60